sensor_id;sensor_type;location;lat;lon;timestamp;temperature;humidity
23717;DHT22;22094;52.130;5.598;2024-03-02T00:00:02;8.40;99.90
23717;DHT22;22094;52.130;5.598;2024-03-02T00:02:40;8.50;80.30
23717;DHT22;22094;52.130;5.598;2024-03-02T00:05:06;8.50;63.40
23717;DHT22;22094;52.130;5.598;2024-03-02T00:07:32;8.50;31.90
23717;DHT22;22094;52.130;5.598;2024-03-02T00:09:58;8.50;73.30
23717;DHT22;22094;52.130;5.598;2024-03-02T00:12:24;8.50;48.20
23717;DHT22;22094;52.130;5.598;2024-03-02T00:14:49;8.90;39.10
23717;DHT22;22094;52.130;5.598;2024-03-02T00:17:24;8.60;30.40
23717;DHT22;22094;52.130;5.598;2024-03-02T00:19:51;8.60;25.60
23717;DHT22;22094;52.130;5.598;2024-03-02T00:22:17;8.50;91.90
23717;DHT22;22094;52.130;5.598;2024-03-02T00:24:43;8.50;89.80
23717;DHT22;22094;52.130;5.598;2024-03-02T00:27:13;8.50;99.90
23717;DHT22;22094;52.130;5.598;2024-03-02T00:29:40;8.50;75.10
23717;DHT22;22094;52.130;5.598;2024-03-02T00:32:13;8.50;49.00
23717;DHT22;22094;52.130;5.598;2024-03-02T00:34:40;8.50;89.50
23717;DHT22;22094;52.130;5.598;2024-03-02T00:37:06;8.60;90.50
23717;DHT22;22094;52.130;5.598;2024-03-02T00:39:31;8.60;81.80
23717;DHT22;22094;52.130;5.598;2024-03-02T00:41:57;8.60;99.90
23717;DHT22;22094;52.130;5.598;2024-03-02T00:44:25;8.60;99.90
23717;DHT22;22094;52.130;5.598;2024-03-02T00:46:52;8.70;99.90
23717;DHT22;22094;52.130;5.598;2024-03-02T00:49:22;8.50;99.90
23717;DHT22;22094;52.130;5.598;2024-03-02T00:51:49;8.40;99.90
23717;DHT22;22094;52.130;5.598;2024-03-02T00:54:18;8.40;1.00
23717;DHT22;22094;52.130;5.598;2024-03-02T00:56:44;8.40;99.90
23717;DHT22;22094;52.130;5.598;2024-03-02T00:59:10;8.60;99.90
23717;DHT22;22094;52.130;5.598;2024-03-02T01:01:36;8.60;99.90
23717;DHT22;22094;52.130;5.598;2024-03-02T01:04:02;9.00;99.90
23717;DHT22;22094;52.130;5.598;2024-03-02T01:06:27;8.60;99.90
23717;DHT22;22094;52.130;5.598;2024-03-02T01:08:53;8.60;99.90
23717;DHT22;22094;52.130;5.598;2024-03-02T01:11:19;8.50;1.00
23717;DHT22;22094;52.130;5.598;2024-03-02T01:13:45;8.50;1.00
23717;DHT22;22094;52.130;5.598;2024-03-02T01:16:11;8.30;1.00
23717;DHT22;22094;52.130;5.598;2024-03-02T01:18:37;8.60;1.00
23717;DHT22;22094;52.130;5.598;2024-03-02T01:21:03;8.10;99.90
23717;DHT22;22094;52.130;5.598;2024-03-02T01:23:28;8.00;1.00
23717;DHT22;22094;52.130;5.598;2024-03-02T01:25:54;8.00;1.00
23717;DHT22;22094;52.130;5.598;2024-03-02T01:28:20;8.00;1.00
23717;DHT22;22094;52.130;5.598;2024-03-02T01:30:46;8.00;1.00
23717;DHT22;22094;52.130;5.598;2024-03-02T01:33:12;8.00;1.00
23717;DHT22;22094;52.130;5.598;2024-03-02T01:35:37;7.90;96.30
23717;DHT22;22094;52.130;5.598;2024-03-02T01:38:03;7.90;99.90
23717;DHT22;22094;52.130;5.598;2024-03-02T01:40:32;7.80;1.00
23717;DHT22;22094;52.130;5.598;2024-03-02T01:42:57;7.80;1.00
23717;DHT22;22094;52.130;5.598;2024-03-02T01:45:25;7.80;1.00
23717;DHT22;22094;52.130;5.598;2024-03-02T01:47:52;7.80;1.00
23717;DHT22;22094;52.130;5.598;2024-03-02T01:50:25;7.70;1.00
23717;DHT22;22094;52.130;5.598;2024-03-02T01:52:51;7.70;99.90
23717;DHT22;22094;52.130;5.598;2024-03-02T01:55:17;7.70;75.60
23717;DHT22;22094;52.130;5.598;2024-03-02T01:57:42;7.60;1.00
23717;DHT22;22094;52.130;5.598;2024-03-02T02:00:10;7.60;99.90
23717;DHT22;22094;52.130;5.598;2024-03-02T02:02:36;7.60;1.00
23717;DHT22;22094;52.130;5.598;2024-03-02T02:05:02;7.50;1.00
23717;DHT22;22094;52.130;5.598;2024-03-02T02:07:28;7.40;99.90
23717;DHT22;22094;52.130;5.598;2024-03-02T02:09:53;7.40;54.30
23717;DHT22;22094;52.130;5.598;2024-03-02T02:12:19;8.00;99.90
23717;DHT22;22094;52.130;5.598;2024-03-02T02:14:48;7.50;99.90
23717;DHT22;22094;52.130;5.598;2024-03-02T02:17:15;7.50;99.90
23717;DHT22;22094;52.130;5.598;2024-03-02T02:19:41;7.80;99.90
23717;DHT22;22094;52.130;5.598;2024-03-02T02:22:08;8.00;1.00
23717;DHT22;22094;52.130;5.598;2024-03-02T02:24:33;7.40;99.90
23717;DHT22;22094;52.130;5.598;2024-03-02T02:26:59;7.40;1.00
23717;DHT22;22094;52.130;5.598;2024-03-02T02:29:24;7.30;99.90
23717;DHT22;22094;52.130;5.598;2024-03-02T02:31:50;7.30;99.90
23717;DHT22;22094;52.130;5.598;2024-03-02T02:34:16;7.30;99.90
23717;DHT22;22094;52.130;5.598;2024-03-02T02:36:54;7.30;99.90
23717;DHT22;22094;52.130;5.598;2024-03-02T02:39:23;7.30;99.90
23717;DHT22;22094;52.130;5.598;2024-03-02T02:41:49;7.20;1.00
23717;DHT22;22094;52.130;5.598;2024-03-02T02:44:21;7.30;1.00
23717;DHT22;22094;52.130;5.598;2024-03-02T02:46:49;7.30;1.00
23717;DHT22;22094;52.130;5.598;2024-03-02T02:49:15;7.60;27.30
23717;DHT22;22094;52.130;5.598;2024-03-02T02:51:40;7.20;99.90
23717;DHT22;22094;52.130;5.598;2024-03-02T02:54:06;7.10;1.00
23717;DHT22;22094;52.130;5.598;2024-03-02T02:56:31;7.10;99.90
23717;DHT22;22094;52.130;5.598;2024-03-02T02:58:57;7.00;1.00
23717;DHT22;22094;52.130;5.598;2024-03-02T03:01:22;7.00;1.00
23717;DHT22;22094;52.130;5.598;2024-03-02T03:03:48;7.00;1.00
23717;DHT22;22094;52.130;5.598;2024-03-02T03:06:14;7.00;99.90
23717;DHT22;22094;52.130;5.598;2024-03-02T03:08:39;6.90;1.00
23717;DHT22;22094;52.130;5.598;2024-03-02T03:11:05;6.90;1.00
23717;DHT22;22094;52.130;5.598;2024-03-02T03:13:34;6.90;1.00
23717;DHT22;22094;52.130;5.598;2024-03-02T03:16:00;7.60;99.90
23717;DHT22;22094;52.130;5.598;2024-03-02T03:18:25;6.90;99.90
23717;DHT22;22094;52.130;5.598;2024-03-02T03:20:51;6.90;99.90
23717;DHT22;22094;52.130;5.598;2024-03-02T03:23:16;6.80;1.00
23717;DHT22;22094;52.130;5.598;2024-03-02T03:25:43;6.90;1.00
23717;DHT22;22094;52.130;5.598;2024-03-02T03:28:09;6.80;1.00
23717;DHT22;22094;52.130;5.598;2024-03-02T03:30:38;6.80;1.00
23717;DHT22;22094;52.130;5.598;2024-03-02T03:33:04;6.70;99.90
23717;DHT22;22094;52.130;5.598;2024-03-02T03:35:33;6.70;99.90
23717;DHT22;22094;52.130;5.598;2024-03-02T03:37:59;6.70;99.90
23717;DHT22;22094;52.130;5.598;2024-03-02T03:40:24;6.70;99.90
23717;DHT22;22094;52.130;5.598;2024-03-02T03:42:50;6.70;99.90
23717;DHT22;22094;52.130;5.598;2024-03-02T03:45:16;6.60;99.90
23717;DHT22;22094;52.130;5.598;2024-03-02T03:47:42;6.70;99.90
23717;DHT22;22094;52.130;5.598;2024-03-02T03:50:08;6.60;47.00
23717;DHT22;22094;52.130;5.598;2024-03-02T03:52:33;6.60;1.00
23717;DHT22;22094;52.130;5.598;2024-03-02T03:54:59;6.60;1.00
23717;DHT22;22094;52.130;5.598;2024-03-02T03:57:26;6.60;1.00
23717;DHT22;22094;52.130;5.598;2024-03-02T03:59:52;6.60;99.90
23717;DHT22;22094;52.130;5.598;2024-03-02T04:02:17;6.60;1.00
23717;DHT22;22094;52.130;5.598;2024-03-02T04:04:43;6.60;1.00
23717;DHT22;22094;52.130;5.598;2024-03-02T04:07:09;6.60;99.90
23717;DHT22;22094;52.130;5.598;2024-03-02T04:09:34;6.70;99.90
23717;DHT22;22094;52.130;5.598;2024-03-02T04:12:00;6.70;1.00
23717;DHT22;22094;52.130;5.598;2024-03-02T04:14:25;6.70;1.00
23717;DHT22;22094;52.130;5.598;2024-03-02T04:16:51;6.70;99.90
23717;DHT22;22094;52.130;5.598;2024-03-02T04:19:16;6.70;99.90
23717;DHT22;22094;52.130;5.598;2024-03-02T04:21:42;6.70;1.00
23717;DHT22;22094;52.130;5.598;2024-03-02T04:24:08;6.70;1.00
23717;DHT22;22094;52.130;5.598;2024-03-02T04:26:33;6.70;1.00
23717;DHT22;22094;52.130;5.598;2024-03-02T04:28:59;6.70;1.00
23717;DHT22;22094;52.130;5.598;2024-03-02T04:31:24;6.70;1.00
23717;DHT22;22094;52.130;5.598;2024-03-02T04:33:50;6.70;1.00
23717;DHT22;22094;52.130;5.598;2024-03-02T04:36:15;6.70;99.90
23717;DHT22;22094;52.130;5.598;2024-03-02T04:38:41;6.70;99.90
23717;DHT22;22094;52.130;5.598;2024-03-02T04:41:07;7.60;99.90
23717;DHT22;22094;52.130;5.598;2024-03-02T04:43:34;6.70;1.00
23717;DHT22;22094;52.130;5.598;2024-03-02T04:46:00;6.70;26.40
23717;DHT22;22094;52.130;5.598;2024-03-02T04:48:26;6.70;1.00
23717;DHT22;22094;52.130;5.598;2024-03-02T04:50:51;6.70;1.00
23717;DHT22;22094;52.130;5.598;2024-03-02T04:53:17;6.60;1.00
23717;DHT22;22094;52.130;5.598;2024-03-02T04:55:43;6.50;1.00
23717;DHT22;22094;52.130;5.598;2024-03-02T04:58:08;6.40;1.00
23717;DHT22;22094;52.130;5.598;2024-03-02T05:00:35;6.30;1.00
23717;DHT22;22094;52.130;5.598;2024-03-02T05:03:02;7.10;1.00
23717;DHT22;22094;52.130;5.598;2024-03-02T05:05:27;6.30;3.50
23717;DHT22;22094;52.130;5.598;2024-03-02T05:07:53;6.30;1.00
23717;DHT22;22094;52.130;5.598;2024-03-02T05:10:19;6.40;1.00
23717;DHT22;22094;52.130;5.598;2024-03-02T05:12:44;6.40;99.90
23717;DHT22;22094;52.130;5.598;2024-03-02T05:15:11;6.50;99.90
23717;DHT22;22094;52.130;5.598;2024-03-02T05:17:40;6.50;36.80
23717;DHT22;22094;52.130;5.598;2024-03-02T05:20:08;6.60;1.00
23717;DHT22;22094;52.130;5.598;2024-03-02T05:22:34;6.60;1.00
23717;DHT22;22094;52.130;5.598;2024-03-02T05:25:03;6.50;1.00
23717;DHT22;22094;52.130;5.598;2024-03-02T05:27:29;6.60;1.00
23717;DHT22;22094;52.130;5.598;2024-03-02T05:29:55;6.60;99.90
23717;DHT22;22094;52.130;5.598;2024-03-02T05:32:21;6.70;1.00
23717;DHT22;22094;52.130;5.598;2024-03-02T05:34:47;6.70;55.60
23717;DHT22;22094;52.130;5.598;2024-03-02T05:37:12;6.80;64.10
23717;DHT22;22094;52.130;5.598;2024-03-02T05:39:38;6.70;99.90
23717;DHT22;22094;52.130;5.598;2024-03-02T05:42:04;6.70;99.90
23717;DHT22;22094;52.130;5.598;2024-03-02T05:44:29;6.70;99.90
23717;DHT22;22094;52.130;5.598;2024-03-02T05:46:55;6.70;99.90
23717;DHT22;22094;52.130;5.598;2024-03-02T05:49:21;6.60;1.00
23717;DHT22;22094;52.130;5.598;2024-03-02T05:51:47;7.00;1.00
23717;DHT22;22094;52.130;5.598;2024-03-02T05:54:12;6.60;1.00
23717;DHT22;22094;52.130;5.598;2024-03-02T05:56:38;6.60;99.90
23717;DHT22;22094;52.130;5.598;2024-03-02T05:59:04;6.60;1.00
23717;DHT22;22094;52.130;5.598;2024-03-02T06:01:47;6.50;1.00
23717;DHT22;22094;52.130;5.598;2024-03-02T06:04:14;6.40;99.90
23717;DHT22;22094;52.130;5.598;2024-03-02T06:06:40;6.40;31.00
23717;DHT22;22094;52.130;5.598;2024-03-02T06:09:06;6.30;1.00
23717;DHT22;22094;52.130;5.598;2024-03-02T06:11:38;6.20;1.00
23717;DHT22;22094;52.130;5.598;2024-03-02T06:14:04;6.10;99.90
23717;DHT22;22094;52.130;5.598;2024-03-02T06:16:30;6.00;1.00
23717;DHT22;22094;52.130;5.598;2024-03-02T06:18:56;6.00;1.00
23717;DHT22;22094;52.130;5.598;2024-03-02T06:21:23;5.90;1.00
23717;DHT22;22094;52.130;5.598;2024-03-02T06:23:49;5.80;1.00
23717;DHT22;22094;52.130;5.598;2024-03-02T06:26:15;5.80;56.90
23717;DHT22;22094;52.130;5.598;2024-03-02T06:28:40;5.70;99.90
23717;DHT22;22094;52.130;5.598;2024-03-02T06:31:06;5.70;1.00
23717;DHT22;22094;52.130;5.598;2024-03-02T06:33:32;5.60;99.90
23717;DHT22;22094;52.130;5.598;2024-03-02T06:35:57;5.50;1.00
23717;DHT22;22094;52.130;5.598;2024-03-02T06:38:23;5.40;99.90
23717;DHT22;22094;52.130;5.598;2024-03-02T06:40:48;5.50;1.00
23717;DHT22;22094;52.130;5.598;2024-03-02T06:43:14;5.50;17.70
23717;DHT22;22094;52.130;5.598;2024-03-02T06:45:39;5.50;1.00
23717;DHT22;22094;52.130;5.598;2024-03-02T06:48:05;5.50;1.00
23717;DHT22;22094;52.130;5.598;2024-03-02T06:50:31;5.50;1.00
23717;DHT22;22094;52.130;5.598;2024-03-02T06:52:56;5.60;1.00
23717;DHT22;22094;52.130;5.598;2024-03-02T06:55:22;5.60;1.00
23717;DHT22;22094;52.130;5.598;2024-03-02T06:57:50;5.70;1.00
23717;DHT22;22094;52.130;5.598;2024-03-02T07:00:16;5.70;1.00
23717;DHT22;22094;52.130;5.598;2024-03-02T07:02:43;5.80;1.00
23717;DHT22;22094;52.130;5.598;2024-03-02T07:05:10;5.90;1.00
23717;DHT22;22094;52.130;5.598;2024-03-02T07:07:35;5.90;1.00
23717;DHT22;22094;52.130;5.598;2024-03-02T07:10:03;6.00;1.00
23717;DHT22;22094;52.130;5.598;2024-03-02T07:12:28;6.00;99.90
23717;DHT22;22094;52.130;5.598;2024-03-02T07:14:54;6.10;1.00
23717;DHT22;22094;52.130;5.598;2024-03-02T07:17:42;6.10;99.90
23717;DHT22;22094;52.130;5.598;2024-03-02T07:20:08;6.10;99.90
23717;DHT22;22094;52.130;5.598;2024-03-02T07:22:34;6.00;1.00
23717;DHT22;22094;52.130;5.598;2024-03-02T07:24:59;6.40;99.90
23717;DHT22;22094;52.130;5.598;2024-03-02T07:27:25;5.90;1.00
23717;DHT22;22094;52.130;5.598;2024-03-02T07:29:50;6.00;1.00
23717;DHT22;22094;52.130;5.598;2024-03-02T07:32:16;5.80;1.00
23717;DHT22;22094;52.130;5.598;2024-03-02T07:34:42;5.80;99.90
23717;DHT22;22094;52.130;5.598;2024-03-02T07:37:07;5.80;1.00
23717;DHT22;22094;52.130;5.598;2024-03-02T07:39:33;6.00;1.00
23717;DHT22;22094;52.130;5.598;2024-03-02T07:41:59;8.90;1.00
23717;DHT22;22094;52.130;5.598;2024-03-02T07:44:25;5.80;99.90
23717;DHT22;22094;52.130;5.598;2024-03-02T07:46:51;6.00;99.90
23717;DHT22;22094;52.130;5.598;2024-03-02T07:49:16;6.20;99.90
23717;DHT22;22094;52.130;5.598;2024-03-02T07:51:43;6.50;1.00
23717;DHT22;22094;52.130;5.598;2024-03-02T07:54:09;6.80;99.90
23717;DHT22;22094;52.130;5.598;2024-03-02T07:59:01;6.90;1.00
23717;DHT22;22094;52.130;5.598;2024-03-02T08:01:28;6.80;1.00
23717;DHT22;22094;52.130;5.598;2024-03-02T08:03:58;7.00;22.50
23717;DHT22;22094;52.130;5.598;2024-03-02T08:06:25;7.20;1.00
23717;DHT22;22094;52.130;5.598;2024-03-02T08:08:56;7.50;1.00
23717;DHT22;22094;52.130;5.598;2024-03-02T08:11:22;7.40;1.00
23717;DHT22;22094;52.130;5.598;2024-03-02T08:13:48;7.70;75.40
23717;DHT22;22094;52.130;5.598;2024-03-02T08:16:17;7.80;1.00
23717;DHT22;22094;52.130;5.598;2024-03-02T08:18:45;8.10;99.90
23717;DHT22;22094;52.130;5.598;2024-03-02T08:21:12;7.70;99.90
23717;DHT22;22094;52.130;5.598;2024-03-02T08:23:38;5.70;35.40
23717;DHT22;22094;52.130;5.598;2024-03-02T08:26:03;8.30;1.00
23717;DHT22;22094;52.130;5.598;2024-03-02T08:28:29;8.00;1.00
23717;DHT22;22094;52.130;5.598;2024-03-02T08:33:22;8.00;1.00
23717;DHT22;22094;52.130;5.598;2024-03-02T08:35:47;7.90;1.00
23717;DHT22;22094;52.130;5.598;2024-03-02T08:38:13;8.10;8.60
23717;DHT22;22094;52.130;5.598;2024-03-02T08:40:39;7.80;99.90
23717;DHT22;22094;52.130;5.598;2024-03-02T08:45:30;8.00;1.00
23717;DHT22;22094;52.130;5.598;2024-03-02T08:50:22;8.30;1.00
23717;DHT22;22094;52.130;5.598;2024-03-02T08:52:55;8.20;1.00
23717;DHT22;22094;52.130;5.598;2024-03-02T08:55:21;8.40;1.00
23717;DHT22;22094;52.130;5.598;2024-03-02T08:57:46;9.70;1.00
23717;DHT22;22094;52.130;5.598;2024-03-02T09:00:12;6.20;1.00
23717;DHT22;22094;52.130;5.598;2024-03-02T09:02:38;6.10;99.90
23717;DHT22;22094;52.130;5.598;2024-03-02T09:05:04;8.20;99.90
23717;DHT22;22094;52.130;5.598;2024-03-02T09:07:30;9.10;99.90
23717;DHT22;22094;52.130;5.598;2024-03-02T09:09:56;9.20;99.90
23717;DHT22;22094;52.130;5.598;2024-03-02T09:12:21;12.40;1.00
23717;DHT22;22094;52.130;5.598;2024-03-02T09:14:47;9.30;1.00
23717;DHT22;22094;52.130;5.598;2024-03-02T09:17:13;9.30;99.90
23717;DHT22;22094;52.130;5.598;2024-03-02T09:19:39;9.20;1.00
23717;DHT22;22094;52.130;5.598;2024-03-02T09:22:05;9.40;1.00
23717;DHT22;22094;52.130;5.598;2024-03-02T09:24:31;9.60;1.00
23717;DHT22;22094;52.130;5.598;2024-03-02T09:29:23;9.80;1.00
23717;DHT22;22094;52.130;5.598;2024-03-02T09:31:48;9.80;1.00
23717;DHT22;22094;52.130;5.598;2024-03-02T09:34:16;9.70;1.00
23717;DHT22;22094;52.130;5.598;2024-03-02T09:36:41;10.80;1.00
23717;DHT22;22094;52.130;5.598;2024-03-02T09:39:07;9.90;1.00
23717;DHT22;22094;52.130;5.598;2024-03-02T09:41:35;11.40;1.00
23717;DHT22;22094;52.130;5.598;2024-03-02T09:44:02;9.60;1.00
23717;DHT22;22094;52.130;5.598;2024-03-02T09:46:27;12.90;1.00
23717;DHT22;22094;52.130;5.598;2024-03-02T09:48:53;10.00;1.00
23717;DHT22;22094;52.130;5.598;2024-03-02T09:51:19;13.10;1.00
23717;DHT22;22094;52.130;5.598;2024-03-02T09:56:11;9.60;1.00
23717;DHT22;22094;52.130;5.598;2024-03-02T09:58:38;10.40;1.00
23717;DHT22;22094;52.130;5.598;2024-03-02T10:01:06;12.50;1.00
23717;DHT22;22094;52.130;5.598;2024-03-02T10:03:33;11.30;1.00
23717;DHT22;22094;52.130;5.598;2024-03-02T10:06:19;10.50;1.00
23717;DHT22;22094;52.130;5.598;2024-03-02T10:08:44;12.60;1.00
23717;DHT22;22094;52.130;5.598;2024-03-02T10:11:10;13.50;1.00
23717;DHT22;22094;52.130;5.598;2024-03-02T10:16:12;10.60;1.00
23717;DHT22;22094;52.130;5.598;2024-03-02T10:18:37;10.80;1.00
23717;DHT22;22094;52.130;5.598;2024-03-02T10:21:15;10.90;1.00
23717;DHT22;22094;52.130;5.598;2024-03-02T10:23:41;12.10;1.00
23717;DHT22;22094;52.130;5.598;2024-03-02T10:26:18;11.30;1.00
23717;DHT22;22094;52.130;5.598;2024-03-02T10:28:47;11.10;1.00
23717;DHT22;22094;52.130;5.598;2024-03-02T10:31:13;12.90;1.00
23717;DHT22;22094;52.130;5.598;2024-03-02T10:33:39;11.10;1.00
23717;DHT22;22094;52.130;5.598;2024-03-02T10:36:05;11.60;1.00
23717;DHT22;22094;52.130;5.598;2024-03-02T10:40:58;12.50;1.00
23717;DHT22;22094;52.130;5.598;2024-03-02T10:43:25;13.70;1.00
23717;DHT22;22094;52.130;5.598;2024-03-02T10:45:52;9.00;1.00
23717;DHT22;22094;52.130;5.598;2024-03-02T10:48:18;11.50;1.00
23717;DHT22;22094;52.130;5.598;2024-03-02T10:50:44;10.00;1.00
23717;DHT22;22094;52.130;5.598;2024-03-02T10:53:10;12.00;1.00
23717;DHT22;22094;52.130;5.598;2024-03-02T10:58:04;12.50;1.00
23717;DHT22;22094;52.130;5.598;2024-03-02T11:00:35;13.60;1.00
23717;DHT22;22094;52.130;5.598;2024-03-02T11:03:05;13.90;1.00
23717;DHT22;22094;52.130;5.598;2024-03-02T11:05:39;12.70;1.00
23717;DHT22;22094;52.130;5.598;2024-03-02T11:08:14;12.00;1.00
23717;DHT22;22094;52.130;5.598;2024-03-02T11:13:12;11.50;1.00
23717;DHT22;22094;52.130;5.598;2024-03-02T11:15:40;10.20;1.00
23717;DHT22;22094;52.130;5.598;2024-03-02T11:18:07;11.90;1.00
23717;DHT22;22094;52.130;5.598;2024-03-02T11:20:39;12.00;1.00
23717;DHT22;22094;52.130;5.598;2024-03-02T11:23:08;13.80;1.00
23717;DHT22;22094;52.130;5.598;2024-03-02T11:25:35;12.10;1.00
23717;DHT22;22094;52.130;5.598;2024-03-02T11:28:02;12.30;1.00
23717;DHT22;22094;52.130;5.598;2024-03-02T11:32:58;11.80;1.00
23717;DHT22;22094;52.130;5.598;2024-03-02T11:35:27;14.20;1.00
23717;DHT22;22094;52.130;5.598;2024-03-02T11:37:55;14.60;1.00
23717;DHT22;22094;52.130;5.598;2024-03-02T11:40:27;10.60;1.00
23717;DHT22;22094;52.130;5.598;2024-03-02T11:42:53;12.40;99.90
23717;DHT22;22094;52.130;5.598;2024-03-02T11:45:23;13.30;1.00
23717;DHT22;22094;52.130;5.598;2024-03-02T11:47:54;12.60;1.00
23717;DHT22;22094;52.130;5.598;2024-03-02T11:52:57;13.90;1.00
23717;DHT22;22094;52.130;5.598;2024-03-02T11:55:25;11.40;1.00
23717;DHT22;22094;52.130;5.598;2024-03-02T11:57:52;12.40;1.00
23717;DHT22;22094;52.130;5.598;2024-03-02T12:00:19;12.00;1.00
23717;DHT22;22094;52.130;5.598;2024-03-02T12:03:03;14.10;1.00
23717;DHT22;22094;52.130;5.598;2024-03-02T12:07:57;13.00;99.90
23717;DHT22;22094;52.130;5.598;2024-03-02T12:12:55;12.90;99.90
23717;DHT22;22094;52.130;5.598;2024-03-02T12:15:26;12.80;99.90
23717;DHT22;22094;52.130;5.598;2024-03-02T12:17:54;11.10;99.90
23717;DHT22;22094;52.130;5.598;2024-03-02T12:20:20;13.10;99.90
23717;DHT22;22094;52.130;5.598;2024-03-02T12:22:45;13.30;99.90
23717;DHT22;22094;52.130;5.598;2024-03-02T12:25:11;13.00;99.90
23717;DHT22;22094;52.130;5.598;2024-03-02T12:27:39;12.50;99.90
23717;DHT22;22094;52.130;5.598;2024-03-02T12:30:05;12.30;99.90
23717;DHT22;22094;52.130;5.598;2024-03-02T12:32:33;12.80;1.00
23717;DHT22;22094;52.130;5.598;2024-03-02T12:34:59;12.10;99.90
23717;DHT22;22094;52.130;5.598;2024-03-02T12:37:26;13.20;99.90
23717;DHT22;22094;52.130;5.598;2024-03-02T12:39:53;14.90;1.00
23717;DHT22;22094;52.130;5.598;2024-03-02T12:42:18;15.30;1.00
23717;DHT22;22094;52.130;5.598;2024-03-02T12:44:44;16.00;99.90
23717;DHT22;22094;52.130;5.598;2024-03-02T12:49:40;14.20;1.00
23717;DHT22;22094;52.130;5.598;2024-03-02T12:52:05;15.10;99.90
23717;DHT22;22094;52.130;5.598;2024-03-02T12:54:32;13.60;99.90
23717;DHT22;22094;52.130;5.598;2024-03-02T12:56:58;13.70;99.90
23717;DHT22;22094;52.130;5.598;2024-03-02T12:59:24;10.70;99.90
23717;DHT22;22094;52.130;5.598;2024-03-02T13:01:55;11.70;1.00
23717;DHT22;22094;52.130;5.598;2024-03-02T13:04:29;13.40;99.90
23717;DHT22;22094;52.130;5.598;2024-03-02T13:06:55;11.70;99.90
23717;DHT22;22094;52.130;5.598;2024-03-02T13:11:50;13.60;99.90
23717;DHT22;22094;52.130;5.598;2024-03-02T13:16:42;13.70;99.90
23717;DHT22;22094;52.130;5.598;2024-03-02T13:21:34;13.90;1.00
23717;DHT22;22094;52.130;5.598;2024-03-02T13:24:00;16.10;99.90
23717;DHT22;22094;52.130;5.598;2024-03-02T13:26:26;14.10;99.90
23717;DHT22;22094;52.130;5.598;2024-03-02T13:28:52;13.90;99.90
23717;DHT22;22094;52.130;5.598;2024-03-02T13:31:17;13.80;1.00
23717;DHT22;22094;52.130;5.598;2024-03-02T13:33:43;13.70;1.00
23717;DHT22;22094;52.130;5.598;2024-03-02T13:36:08;14.00;1.00
23717;DHT22;22094;52.130;5.598;2024-03-02T13:38:35;12.20;99.90
23717;DHT22;22094;52.130;5.598;2024-03-02T13:41:03;11.60;99.90
23717;DHT22;22094;52.130;5.598;2024-03-02T13:43:29;13.90;99.90
23717;DHT22;22094;52.130;5.598;2024-03-02T13:45:58;15.10;99.90
23717;DHT22;22094;52.130;5.598;2024-03-02T13:48:23;13.50;99.90
23717;DHT22;22094;52.130;5.598;2024-03-02T13:53:18;14.10;99.90
23717;DHT22;22094;52.130;5.598;2024-03-02T13:55:44;15.50;99.90
23717;DHT22;22094;52.130;5.598;2024-03-02T13:58:10;14.50;99.90
23717;DHT22;22094;52.130;5.598;2024-03-02T14:00:36;13.80;99.90
23717;DHT22;22094;52.130;5.598;2024-03-02T14:03:06;14.10;99.90
23717;DHT22;22094;52.130;5.598;2024-03-02T14:05:32;13.10;99.90
23717;DHT22;22094;52.130;5.598;2024-03-02T14:07:58;14.20;99.90
23717;DHT22;22094;52.130;5.598;2024-03-02T14:10:25;14.30;99.90
23717;DHT22;22094;52.130;5.598;2024-03-02T14:12:52;11.40;99.90
23717;DHT22;22094;52.130;5.598;2024-03-02T14:15:18;14.00;99.90
23717;DHT22;22094;52.130;5.598;2024-03-02T14:17:43;13.30;99.90
23717;DHT22;22094;52.130;5.598;2024-03-02T14:25:03;16.90;99.90
23717;DHT22;22094;52.130;5.598;2024-03-02T14:27:29;14.10;99.90
23717;DHT22;22094;52.130;5.598;2024-03-02T14:34:47;14.00;99.90
23717;DHT22;22094;52.130;5.598;2024-03-02T14:37:17;14.10;99.90
23717;DHT22;22094;52.130;5.598;2024-03-02T14:39:42;14.10;99.90
23717;DHT22;22094;52.130;5.598;2024-03-02T14:42:08;14.30;99.90
23717;DHT22;22094;52.130;5.598;2024-03-02T14:44:34;14.60;99.90
23717;DHT22;22094;52.130;5.598;2024-03-02T14:47:01;14.30;99.90
23717;DHT22;22094;52.130;5.598;2024-03-02T14:49:28;14.60;99.90
23717;DHT22;22094;52.130;5.598;2024-03-02T14:51:54;13.90;99.90
23717;DHT22;22094;52.130;5.598;2024-03-02T14:54:20;13.90;99.90
23717;DHT22;22094;52.130;5.598;2024-03-02T14:56:45;14.30;99.90
23717;DHT22;22094;52.130;5.598;2024-03-02T14:59:11;14.40;99.90
23717;DHT22;22094;52.130;5.598;2024-03-02T15:01:37;14.40;99.90
23717;DHT22;22094;52.130;5.598;2024-03-02T15:04:14;14.50;99.90
23717;DHT22;22094;52.130;5.598;2024-03-02T15:06:42;14.10;99.90
23717;DHT22;22094;52.130;5.598;2024-03-02T15:09:07;15.00;99.90
23717;DHT22;22094;52.130;5.598;2024-03-02T15:11:33;14.40;99.90
23717;DHT22;22094;52.130;5.598;2024-03-02T15:13:59;15.20;99.90
23717;DHT22;22094;52.130;5.598;2024-03-02T15:16:25;16.30;99.90
23717;DHT22;22094;52.130;5.598;2024-03-02T15:18:50;16.20;99.90
23717;DHT22;22094;52.130;5.598;2024-03-02T15:21:16;17.20;99.90
23717;DHT22;22094;52.130;5.598;2024-03-02T15:23:41;14.20;99.90
23717;DHT22;22094;52.130;5.598;2024-03-02T15:26:07;17.00;99.90
23717;DHT22;22094;52.130;5.598;2024-03-02T15:28:32;17.10;99.90
23717;DHT22;22094;52.130;5.598;2024-03-02T15:30:58;17.40;99.90
23717;DHT22;22094;52.130;5.598;2024-03-02T15:33:23;20.20;99.90
23717;DHT22;22094;52.130;5.598;2024-03-02T15:35:54;17.20;99.90
23717;DHT22;22094;52.130;5.598;2024-03-02T15:38:20;17.20;99.90
23717;DHT22;22094;52.130;5.598;2024-03-02T15:40:46;16.80;99.90
23717;DHT22;22094;52.130;5.598;2024-03-02T15:43:13;16.80;99.90
23717;DHT22;22094;52.130;5.598;2024-03-02T15:45:39;16.80;99.90
23717;DHT22;22094;52.130;5.598;2024-03-02T15:48:05;16.60;99.90
23717;DHT22;22094;52.130;5.598;2024-03-02T15:50:30;16.10;99.90
23717;DHT22;22094;52.130;5.598;2024-03-02T15:52:58;14.80;99.90
23717;DHT22;22094;52.130;5.598;2024-03-02T15:55:28;15.20;99.90
23717;DHT22;22094;52.130;5.598;2024-03-02T15:57:53;16.00;99.90
23717;DHT22;22094;52.130;5.598;2024-03-02T16:00:19;15.10;99.90
23717;DHT22;22094;52.130;5.598;2024-03-02T16:02:45;14.90;99.90
23717;DHT22;22094;52.130;5.598;2024-03-02T16:05:10;14.80;99.90
23717;DHT22;22094;52.130;5.598;2024-03-02T16:07:36;14.20;99.90
23717;DHT22;22094;52.130;5.598;2024-03-02T16:10:02;15.10;99.90
23717;DHT22;22094;52.130;5.598;2024-03-02T16:12:31;14.40;99.90
23717;DHT22;22094;52.130;5.598;2024-03-02T16:14:57;15.50;99.90
23717;DHT22;22094;52.130;5.598;2024-03-02T16:17:23;15.60;99.90
23717;DHT22;22094;52.130;5.598;2024-03-02T16:19:48;15.70;99.90
23717;DHT22;22094;52.130;5.598;2024-03-02T16:22:14;15.70;99.90
23717;DHT22;22094;52.130;5.598;2024-03-02T16:24:40;15.70;99.90
23717;DHT22;22094;52.130;5.598;2024-03-02T16:27:05;15.50;99.90
23717;DHT22;22094;52.130;5.598;2024-03-02T16:29:31;15.20;99.90
23717;DHT22;22094;52.130;5.598;2024-03-02T16:31:57;14.60;99.90
23717;DHT22;22094;52.130;5.598;2024-03-02T16:34:23;13.80;99.90
23717;DHT22;22094;52.130;5.598;2024-03-02T16:36:48;13.20;99.90
23717;DHT22;22094;52.130;5.598;2024-03-02T16:39:14;12.80;99.90